Time;durP1;ratioP1;P1;durP2;ratioP2;P2;SDS_P1;SDS_P2;PMS_P1;PMS_P2;Temp;Humidity;BMP_temperature;BMP_pressure;BME280_temperature;BME280_humidity;BME280_pressure;Samples;Min_cycle;Max_cycle;Signal;HPM_P1;HPM_P2
2022/10/04 00:02:30;;;;;;;;;42.67;36.00;;;;;12.59;100.00;101570.66;4863296;29;45360;-80
2022/10/04 00:05:15;;;;;;;;;45.33;38.33;;;;;12.63;100.00;101571.59;4855661;29;45549;-80
2022/10/04 00:07:48;;;;;;;;;40.67;35.33;;;;;12.64;100.00;101569.84;4869734;29;45665;-80
2022/10/04 00:10:32;;;;;;;;;38.33;36.00;;;;;12.60;100.00;101575.13;4870697;29;46265;-80
2022/10/04 00:13:01;;;;;;;;;43.00;38.33;;;;;12.62;100.00;101575.13;4853138;29;45381;-80
2022/10/04 00:15:26;;;;;;;;;44.00;37.67;;;;;12.59;100.00;101567.97;4854405;29;45894;-81
2022/10/04 00:18:05;;;;;;;;;35.00;30.67;;;;;12.57;100.00;101572.38;4870092;29;45528;-80
2022/10/04 00:20:54;;;;;;;;;48.67;39.33;;;;;12.53;100.00;101559.84;4853267;29;46927;-80
2022/10/04 00:23:22;;;;;;;;;42.33;37.00;;;;;12.52;100.00;101573.16;4870289;29;45479;-80
2022/10/04 00:25:52;;;;;;;;;46.33;38.67;;;;;12.48;100.00;101568.63;4854083;29;44902;-80
2022/10/04 00:28:20;;;;;;;;;46.00;37.00;;;;;12.48;100.00;101569.56;4872489;29;45362;-80
2022/10/04 00:31:06;;;;;;;;;43.67;38.00;;;;;12.46;100.00;101571.25;4853185;29;47146;-80
2022/10/04 00:33:39;;;;;;;;;38.33;35.00;;;;;12.43;100.00;101575.66;4882217;29;45422;-80
2022/10/04 00:36:44;;;;;;;;;39.00;36.33;;;;;12.39;100.00;101575.59;4871616;29;45417;-80
2022/10/04 00:39:10;;;;;;;;;41.67;36.00;;;;;12.37;100.00;101565.78;4812409;29;45449;-80
2022/10/04 00:41:48;;;;;;;;;45.67;37.67;;;;;12.37;100.00;101564.00;4796157;29;47939;-80
2022/10/04 00:44:19;;;;;;;;;44.00;38.00;;;;;12.31;100.00;101550.53;4811139;29;45486;-81
2022/10/04 00:46:47;;;;;;;;;45.00;36.00;;;;;12.26;100.00;101545.97;4829594;29;45555;-80
2022/10/04 00:49:19;;;;;;;;;40.33;35.67;;;;;12.23;100.00;101546.81;4829734;29;44835;-80
2022/10/04 00:52:12;;;;;;;;;38.67;36.33;;;;;12.23;100.00;101556.59;4829595;29;45419;-80
2022/10/04 00:54:43;;;;;;;;;40.67;37.00;;;;;12.17;100.00;101558.25;4830421;29;45483;-80
2022/10/04 00:57:18;;;;;;;;;43.33;37.33;;;;;12.18;100.00;101553.84;4814305;29;45569;-81
2022/10/04 00:59:48;;;;;;;;;48.33;39.67;;;;;12.15;100.00;101549.31;4814823;29;45532;-80
2022/10/04 01:02:21;;;;;;;;;42.33;36.67;;;;;12.15;100.00;101543.97;4829920;29;45807;-80
2022/10/04 01:05:07;;;;;;;;;43.67;36.00;;;;;12.14;100.00;101542.19;4814005;29;45651;-81
2022/10/04 01:07:36;;;;;;;;;40.33;36.00;;;;;12.10;100.00;101537.69;4829636;29;45392;-80
2022/10/04 01:10:09;;;;;;;;;36.67;34.67;;;;;12.05;100.00;101541.09;4814734;29;45490;-80
2022/10/04 01:12:53;;;;;;;;;43.33;37.00;;;;;12.01;100.00;101532.13;4847458;29;46159;-80
2022/10/04 01:15:21;;;;;;;;;38.00;36.00;;;;;11.99;100.00;101531.22;4890061;29;45436;-80
2022/10/04 01:18:08;;;;;;;;;42.33;34.67;;;;;11.97;100.00;101523.16;4888244;29;45480;-80
2022/10/04 01:23:58;;;;;;;;;41.33;36.33;;;;;11.92;100.00;101526.63;4887253;29;45397;-80
2022/10/04 01:26:33;;;;;;;;;46.67;37.67;;;;;11.89;100.00;101518.56;4877167;29;45692;-80
2022/10/04 01:28:58;;;;;;;;;48.00;40.33;;;;;11.87;100.00;101517.59;4870511;29;45431;-81
2022/10/04 01:31:28;;;;;;;;;49.33;39.00;;;;;11.80;100.00;101508.56;4873630;29;45678;-81
2022/10/04 01:33:54;;;;;;;;;39.33;34.33;;;;;11.80;100.00;101511.25;4873604;29;47478;-80
2022/10/04 01:36:26;;;;;;;;;35.67;33.00;;;;;11.80;100.00;101503.25;4877729;29;45644;-81
2022/10/04 01:38:53;;;;;;;;;39.67;35.00;;;;;11.75;100.00;101508.44;4886996;29;45424;-80
2022/10/04 01:41:43;;;;;;;;;42.00;37.00;;;;;11.72;100.00;101508.41;4871986;29;45339;-80
2022/10/04 01:44:18;;;;;;;;;40.67;37.00;;;;;11.74;100.00;101501.34;4879278;29;45441;-80
2022/10/04 01:46:45;;;;;;;;;46.00;38.33;;;;;11.77;100.00;101503.16;4885652;29;45358;-81
2022/10/04 01:49:18;;;;;;;;;37.33;34.67;;;;;11.80;100.00;101498.81;4873263;29;45645;-79
2022/10/04 01:51:53;;;;;;;;;38.00;34.00;;;;;11.82;100.00;101502.41;4889210;29;45475;-80
2022/10/04 01:54:24;;;;;;;;;41.67;36.00;;;;;11.88;100.00;101495.41;4872266;29;47016;-81
2022/10/04 01:56:59;;;;;;;;;43.00;37.00;;;;;11.90;100.00;101494.59;4872754;29;45629;-80
2022/10/04 01:59:32;;;;;;;;;51.00;42.67;;;;;11.86;100.00;101482.06;4872434;29;45470;-81
2022/10/04 02:02:17;;;;;;;;;43.00;36.00;;;;;11.86;100.00;101484.72;4872559;29;45717;-80
2022/10/04 02:04:51;;;;;;;;;43.67;37.00;;;;;11.85;100.00;101476.69;4871562;29;45359;-81
2022/10/04 02:07:17;;;;;;;;;39.00;36.33;;;;;11.81;100.00;101479.31;4888491;29;45426;-80
2022/10/04 02:09:46;;;;;;;;;38.00;33.33;;;;;11.81;100.00;101476.63;4889301;29;44961;-80
2022/10/04 02:12:17;;;;;;;;;48.00;37.67;;;;;11.80;100.00;101465.94;4873234;29;45549;-80
2022/10/04 02:14:52;;;;;;;;;44.67;36.00;;;;;11.80;100.00;101469.50;4889607;29;45188;-80
2022/10/04 02:17:26;;;;;;;;;38.67;35.33;;;;;11.81;100.00;101463.31;4887574;29;45539;-80
2022/10/04 02:19:52;;;;;;;;;37.00;35.00;;;;;11.74;100.00;101450.72;4873329;29;45476;-80
2022/10/04 02:25:40;;;;;;;;;39.67;34.00;;;;;11.66;100.00;101451.44;4871123;29;45414;-80
2022/10/04 02:28:10;;;;;;;;;40.33;34.33;;;;;11.64;100.00;101456.72;4870588;29;45356;-80
2022/10/04 02:30:38;;;;;;;;;36.00;33.33;;;;;11.63;100.00;101465.56;4869458;29;45488;-81
2022/10/04 02:33:04;;;;;;;;;36.33;31.67;;;;;11.61;100.00;101452.22;4852424;29;44861;-80
2022/10/04 02:35:36;;;;;;;;;35.00;33.00;;;;;11.58;100.00;101459.25;4868566;29;46980;-80
2022/10/04 02:38:08;;;;;;;;;41.67;36.67;;;;;11.56;100.00;101456.53;4869663;29;45419;-80
2022/10/04 02:40:47;;;;;;;;;38.00;34.33;;;;;11.52;100.00;101448.47;4869052;29;45702;-81
2022/10/04 02:43:44;;;;;;;;;36.33;32.33;;;;;11.52;100.00;101453.78;4869770;29;45424;-81
2022/10/04 02:46:19;;;;;;;;;40.00;36.00;;;;;11.47;100.00;101439.47;4869232;29;45380;-80
2022/10/04 02:48:52;;;;;;;;;35.67;34.00;;;;;11.48;100.00;101441.28;4870770;29;45372;-80
2022/10/04 02:51:17;;;;;;;;;40.00;35.67;;;;;11.44;100.00;101440.31;4867313;29;45425;-80
2022/10/04 02:54:01;;;;;;;;;41.00;37.00;;;;;11.44;100.00;101440.31;4854401;29;45529;-80
2022/10/04 02:56:27;;;;;;;;;33.67;33.33;;;;;11.41;100.00;101446.47;4870160;29;45502;-81
2022/10/04 02:58:59;;;;;;;;;36.33;32.00;;;;;11.43;100.00;101443.81;4869678;29;45331;-80
2022/10/04 03:01:54;;;;;;;;;39.67;35.00;;;;;11.45;100.00;101438.53;4869291;29;45571;-81
2022/10/04 03:04:40;;;;;;;;;31.67;30.33;;;;;11.43;100.00;101434.94;4852939;29;45540;-80
2022/10/04 03:07:08;;;;;;;;;34.33;30.00;;;;;11.40;100.00;101431.34;4869142;28;45498;-80
2022/10/04 03:09:36;;;;;;;;;25.00;24.00;;;;;11.38;100.00;101434.84;4868032;29;45590;-81
2022/10/04 03:12:03;;;;;;;;;33.00;29.33;;;;;11.34;100.00;101431.22;4869180;29;45307;-80
2022/10/04 03:14:31;;;;;;;;;36.00;33.00;;;;;11.37;100.00;101433.03;4871057;29;45784;-80
2022/10/04 03:16:59;;;;;;;;;33.00;33.00;;;;;11.36;100.00;101426.81;4869533;29;45456;-81
2022/10/04 03:19:27;;;;;;;;;37.00;34.00;;;;;11.30;100.00;101416.03;4879066;29;45474;-80
2022/10/04 03:21:56;;;;;;;;;32.33;31.67;;;;;11.34;100.00;101423.22;4871928;29;44783;-80
2022/10/04 03:24:26;;;;;;;;;26.33;26.33;;;;;11.32;100.00;101424.94;4871317;29;45567;-80
2022/10/04 03:26:54;;;;;;;;;36.00;31.67;;;;;11.26;100.00;101408.84;4855828;29;48255;-79
2022/10/04 03:29:23;;;;;;;;;37.00;33.00;;;;;11.28;100.00;101412.44;4872677;29;45543;-80
2022/10/04 03:31:51;;;;;;;;;37.67;35.67;;;;;11.23;100.00;101408.78;4872668;29;45399;-80
2022/10/04 03:34:23;;;;;;;;;37.00;34.00;;;;;11.25;100.00;101412.38;4875435;29;45373;-80
2022/10/04 03:36:52;;;;;;;;;35.33;33.33;;;;;11.25;100.00;101408.78;4864426;29;47117;-80
2022/10/04 03:39:33;;;;;;;;;37.33;33.33;;;;;11.21;100.00;101399.88;4887534;29;45437;-80
2022/10/04 03:42:19;;;;;;;;;30.67;27.00;;;;;11.19;100.00;101404.25;4875678;29;45423;-79
2022/10/04 03:44:46;;;;;;;;;34.33;28.67;;;;;11.19;100.00;101396.28;4874150;29;45590;-81
2022/10/04 03:47:21;;;;;;;;;28.67;26.67;;;;;11.19;100.00;101389.19;4875515;29;45545;-80
2022/10/04 03:49:49;;;;;;;;;32.67;29.00;;;;;11.21;100.00;101397.22;4890382;29;45328;-80
2022/10/04 03:52:24;;;;;;;;;35.33;32.67;;;;;11.17;100.00;101388.25;4892710;28;45530;-79
2022/10/04 03:54:54;;;;;;;;;33.00;29.00;;;;;11.14;100.00;101398.81;4892901;29;44845;-80
2022/10/04 03:57:20;;;;;;;;;31.00;29.33;;;;;11.12;100.00;101389.00;4889376;29;45537;-80
2022/10/04 03:59:46;;;;;;;;;36.67;33.67;;;;;11.07;100.00;101380.00;4871972;29;45370;-81
2022/10/04 04:05:46;;;;;;;;;31.33;31.33;;;;;11.08;100.00;101392.47;4889953;29;45389;-80
2022/10/04 04:08:22;;;;;;;;;30.33;29.00;;;;;11.11;100.00;101404.09;4889753;29;46046;-80
2022/10/04 04:10:53;;;;;;;;;32.00;31.00;;;;;11.12;100.00;101410.31;4881852;29;45352;-80
2022/10/04 04:13:24;;;;;;;;;31.33;29.33;;;;;11.11;100.00;101414.72;4871928;29;44798;-80
2022/10/04 04:15:52;;;;;;;;;29.67;29.67;;;;;11.10;100.00;101407.59;4889955;29;45405;-80
2022/10/04 04:18:29;;;;;;;;;29.67;27.33;;;;;11.06;100.00;101407.50;4890801;29;45318;-80
2022/10/04 04:20:57;;;;;;;;;24.67;23.00;;;;;11.04;100.00;101417.22;4889509;29;45471;-80
2022/10/04 04:23:35;;;;;;;;;29.00;26.67;;;;;10.99;100.00;101409.13;4890499;29;45458;-80
2022/10/04 04:26:18;;;;;;;;;26.67;26.67;;;;;10.96;100.00;101414.38;4872792;29;45407;-80
2022/10/04 04:28:49;;;;;;;;;32.33;28.67;;;;;10.95;100.00;101424.13;4856910;29;45340;-80
2022/10/04 04:31:30;;;;;;;;;29.00;26.33;;;;;10.94;100.00;101426.75;4888909;29;45385;-80
2022/10/04 04:33:59;;;;;;;;;27.00;27.00;;;;;10.91;100.00;101438.22;4872422;29;45538;-81
2022/10/04 04:39:54;;;;;;;;;26.00;25.00;;;;;10.87;100.00;101419.50;4890325;29;45717;-80
2022/10/04 04:42:30;;;;;;;;;30.67;30.67;;;;;10.88;100.00;101432.81;4887757;29;45615;-81
2022/10/04 04:45:00;;;;;;;;;33.33;31.33;;;;;10.86;100.00;101423.00;4889155;29;45447;-80
2022/10/04 04:47:25;;;;;;;;;32.33;30.33;;;;;10.85;100.00;101426.53;4889670;29;45363;-80
2022/10/04 04:49:52;;;;;;;;;30.00;29.00;;;;;10.82;100.00;101428.22;4887428;29;46546;-81
2022/10/04 04:52:21;;;;;;;;;25.33;23.33;;;;;10.83;100.00;101431.81;4888587;29;45775;-79
2022/10/04 04:54:48;;;;;;;;;29.00;26.33;;;;;10.84;100.00;101422.97;4888186;29;45416;-80
2022/10/04 04:57:16;;;;;;;;;32.00;27.33;;;;;10.87;100.00;101431.03;4888756;29;45405;-80
2022/10/04 04:59:57;;;;;;;;;26.33;25.33;;;;;10.80;100.00;101431.72;4890871;29;45245;-79
2022/10/04 05:02:54;;;;;;;;;24.33;22.67;;;;;10.80;100.00;101434.38;4890950;29;45446;-80
2022/10/04 05:05:22;;;;;;;;;26.33;25.67;;;;;10.77;100.00;101431.66;4889842;29;45464;-81
2022/10/04 05:07:47;;;;;;;;;33.33;27.00;;;;;10.75;100.00;101436.06;4889185;29;45470;-80
2022/10/04 05:10:30;;;;;;;;;22.33;22.33;;;;;10.73;100.00;101437.78;4872269;29;46923;-80
2022/10/04 05:12:58;;;;;;;;;25.33;21.00;;;;;10.66;100.00;101430.50;4890035;29;45392;-81
2022/10/04 05:15:25;;;;;;;;;26.67;25.00;;;;;10.62;100.00;101434.84;4872890;29;45242;-80
2022/10/04 05:17:51;;;;;;;;;25.00;22.00;;;;;10.64;100.00;101438.44;4873407;29;45541;-80
2022/10/04 05:20:17;;;;;;;;;23.67;22.33;;;;;10.60;100.00;101432.16;4871612;29;45757;-79
2022/10/04 05:22:47;;;;;;;;;22.33;19.67;;;;;10.61;100.00;101433.94;4890384;29;45528;-81
2022/10/04 05:25:30;;;;;;;;;26.00;22.00;;;;;10.55;100.00;101432.91;4888767;29;45342;-80
2022/10/04 05:27:55;;;;;;;;;18.00;16.00;;;;;10.53;100.00;101434.63;4857060;29;45289;-80
2022/10/04 05:30:47;;;;;;;;;23.33;22.33;;;;;10.52;100.00;101423.09;4887588;29;45443;-80
2022/10/04 05:33:23;;;;;;;;;28.67;24.67;;;;;10.49;100.00;101417.69;4871537;29;45998;-80
2022/10/04 05:36:11;;;;;;;;;27.67;24.33;;;;;10.52;100.00;101425.75;4888995;29;45362;-80
2022/10/04 05:38:47;;;;;;;;;26.33;25.33;;;;;10.51;100.00;101426.59;4872723;29;45373;-80
2022/10/04 05:41:30;;;;;;;;;23.33;21.67;;;;;10.51;100.00;101428.38;4888196;29;46010;-80
2022/10/04 05:43:56;;;;;;;;;22.00;22.00;;;;;10.47;100.00;101424.72;4889190;29;45443;-80
2022/10/04 05:46:25;;;;;;;;;26.00;22.33;;;;;10.48;100.00;101430.94;4872978;29;45812;-80
2022/10/04 05:49:01;;;;;;;;;20.00;19.67;;;;;10.45;100.00;101415.81;4881500;29;45567;-80
2022/10/04 05:51:29;;;;;;;;;26.67;22.67;;;;;10.46;100.00;101416.69;4889524;29;45129;-80
2022/10/04 05:54:00;;;;;;;;;21.67;19.33;;;;;10.42;100.00;101413.06;4871754;29;45409;-80
2022/10/04 05:56:40;;;;;;;;;22.67;19.33;;;;;10.50;100.00;101424.81;4888860;29;45474;-80
2022/10/04 05:59:20;;;;;;;;;22.33;22.33;;;;;10.53;100.00;101416.91;4872865;29;44810;-79
2022/10/04 06:02:22;;;;;;;;;26.33;23.67;;;;;10.50;100.00;101407.94;4889101;29;45626;-80
2022/10/04 06:04:58;;;;;;;;;24.33;21.33;;;;;10.41;100.00;101414.81;4889346;29;45656;-80
2022/10/04 06:07:33;;;;;;;;;25.67;22.67;;;;;10.46;100.00;101422.00;4887102;29;45430;-80
2022/10/04 06:10:39;;;;;;;;;25.33;25.33;;;;;10.43;100.00;101406.00;4875258;29;45496;-80
2022/10/04 06:13:14;;;;;;;;;29.33;28.00;;;;;10.44;100.00;101408.66;4887183;29;47166;-79
2022/10/04 06:15:45;;;;;;;;;22.67;19.33;;;;;10.44;100.00;101411.31;4887284;29;45394;-80
2022/10/04 06:18:36;;;;;;;;;25.00;25.00;;;;;10.49;100.00;101425.66;4871344;29;45337;-79
2022/10/04 06:21:10;;;;;;;;;28.00;24.00;;;;;10.52;100.00;101415.13;4888527;29;45450;-80
2022/10/04 06:23:46;;;;;;;;;23.33;21.00;;;;;10.52;100.00;101425.75;4887320;29;45443;-80
2022/10/04 06:26:20;;;;;;;;;16.33;15.00;;;;;10.51;100.00;101429.25;4887827;29;45870;-80
2022/10/04 06:28:51;;;;;;;;;24.00;23.67;;;;;10.51;100.00;101420.38;4855510;29;45512;-80
2022/10/04 06:31:25;;;;;;;;;24.33;22.67;;;;;10.60;100.00;101432.16;4872850;29;45531;-80
2022/10/04 06:33:56;;;;;;;;;24.33;24.33;;;;;10.66;100.00;101436.72;4889096;29;45391;-80
2022/10/04 06:36:22;;;;;;;;;28.33;25.00;;;;;10.70;100.00;101443.00;4887267;29;45001;-81
2022/10/04 06:38:50;;;;;;;;;24.33;23.00;;;;;10.76;100.00;101437.84;4872898;29;45860;-80
2022/10/04 06:41:49;;;;;;;;;24.33;22.67;;;;;10.81;100.00;101436.22;4872830;29;45297;-80
2022/10/04 06:44:50;;;;;;;;;29.33;24.33;;;;;10.82;100.00;101440.66;4888619;29;45461;-80
2022/10/04 06:47:55;;;;;;;;;30.00;26.67;;;;;10.86;100.00;101437.19;4870373;29;45434;-80
2022/10/04 06:50:35;;;;;;;;;30.67;28.00;;;;;10.93;100.00;101431.19;4872834;29;45451;-80
2022/10/04 06:53:38;;;;;;;;;28.33;27.67;;;;;10.99;100.00;101425.09;4873034;29;45548;-80
2022/10/04 06:56:36;;;;;;;;;24.00;21.33;;;;;11.05;100.00;101424.31;4872083;29;47669;-80
2022/10/04 06:59:15;;;;;;;;;30.67;28.00;;;;;11.16;100.00;101423.72;4848331;29;45467;-79
2022/10/04 07:01:53;;;;;;;;;27.67;26.00;;;;;11.23;100.00;101424.75;4849525;29;45449;-79
2022/10/04 07:04:36;;;;;;;;;28.00;27.67;;;;;11.30;100.00;101434.66;4848980;29;45781;-80
2022/10/04 07:07:34;;;;;;;;;29.67;28.33;;;;;11.36;100.00;101429.47;4848053;29;46903;-79
2022/10/04 07:10:30;;;;;;;;;30.33;28.67;;;;;11.45;100.00;101435.88;4833527;29;44917;-79
2022/10/04 07:13:04;;;;;;;;;27.33;24.00;;;;;11.51;100.00;101434.25;4815485;29;44909;-80
2022/10/04 07:15:47;;;;;;;;;30.33;27.67;;;;;11.60;100.00;101441.53;4841771;29;45395;-80
2022/10/04 07:18:22;;;;;;;;;24.00;24.00;;;;;11.67;100.00;101431.91;4848085;29;47097;-80
2022/10/04 07:20:57;;;;;;;;;27.33;26.33;;;;;11.79;100.00;101434.81;4831566;29;45365;-79
2022/10/04 07:23:29;;;;;;;;;27.33;27.00;;;;;11.84;100.00;101429.59;4831641;29;45463;-80
2022/10/04 07:32:45;;;;;;;;;36.67;34.00;;;;;12.17;100.00;101430.25;4844359;29;45462;-80
2022/10/04 07:35:13;;;;;;;;;40.33;33.67;;;;;12.26;100.00;101428.63;4855791;29;45462;-80
2022/10/04 07:37:57;;;;;;;;;36.33;34.33;;;;;12.34;100.00;101432.31;4888290;29;45606;-81
2022/10/04 07:41:06;;;;;;;;;33.00;30.67;;;;;12.39;100.00;101423.53;4888915;29;45399;-81
2022/10/04 07:43:38;;;;;;;;;39.67;32.33;;;;;12.49;100.00;101440.59;4871619;29;45510;-80
2022/10/04 07:46:33;;;;;;;;;37.33;34.67;;;;;12.55;100.00;101427.38;4873138;29;45363;-81
2022/10/04 07:48:59;;;;;;;;;40.67;33.33;;;;;12.63;100.00;101429.28;4873264;29;45339;-81
2022/10/04 07:51:31;;;;;;;;;34.67;33.00;;;;;12.73;100.00;101429.44;4890997;29;45482;-81
2022/10/04 07:54:03;;;;;;;;;35.33;33.00;;;;;12.83;100.00;101425.16;4891056;29;45225;-81
2022/10/04 07:56:59;;;;;;;;;36.00;32.67;;;;;12.96;100.00;101426.25;4874064;29;45420;-81
2022/10/04 07:59:43;;;;;;;;;36.67;34.00;;;;;13.07;100.00;101423.72;4874298;29;45373;-81
2022/10/04 08:02:32;;;;;;;;;38.00;33.67;;;;;13.15;100.00;101419.41;4874607;29;47192;-80
2022/10/04 08:04:57;;;;;;;;;37.00;33.00;;;;;13.22;100.00;101421.28;4886118;29;45505;-80
2022/10/04 08:11:21;;;;;;;;;35.67;32.33;;;;;13.40;100.00;101426.91;4895685;29;44783;-82
2022/10/04 08:13:56;;;;;;;;;39.33;33.00;;;;;13.49;100.00;101419.88;4881177;29;48081;-85
2022/10/04 08:16:35;;;;;;;;;39.33;33.00;;;;;13.55;100.00;101415.53;4881457;29;45394;-84
2022/10/04 08:19:39;;;;;;;;;43.33;36.33;;;;;13.64;100.00;101408.50;4897377;29;45303;-84
2022/10/04 08:22:32;;;;;;;;;45.00;36.00;;;;;13.74;100.00;101418.44;4841683;29;45377;-85
2022/10/04 08:25:38;;;;;;;;;37.33;35.33;;;;;13.78;100.00;101418.47;4839976;29;45493;-86
2022/10/04 08:35:29;;;;;;;;;;;;;;;;;;;;;
2022/10/04 08:38:29;;;;;;;;;35.67;34.67;;;;;14.08;100.00;101438.44;4784813;29;75190;-86
2022/10/04 08:41:26;;;;;;;;;47.00;37.00;;;;;14.16;100.00;101443.88;4793397;29;44753;-85
2022/10/04 08:44:41;;;;;;;;;48.33;40.33;;;;;14.03;100.00;101429.44;4805249;29;45273;-85
2022/10/04 08:48:00;;;;;;;;;47.33;38.67;;;;;14.19;100.00;101452.81;4803929;29;45515;-85
2022/10/04 08:54:10;;;;;;;;;46.33;38.00;;;;;14.26;100.00;101452.88;4849183;29;45334;-85
2022/10/04 08:57:17;;;;;;;;;52.33;41.00;;;;;14.39;100.00;101446.78;4838906;29;45445;-84
2022/10/04 09:00:19;;;;;;;;;45.67;37.67;;;;;14.56;100.00;101444.28;4885713;29;45476;-84
2022/10/04 09:03:25;;;;;;;;;42.33;36.33;;;;;14.67;100.00;101442.59;4878720;29;45611;-84
2022/10/04 09:06:55;;;;;;;;;;;;;;;;;;;;;
2022/10/04 09:09:45;;;;;;;;;42.33;38.00;;;;;14.88;100.00;101428.47;4888319;29;66483;-85
2022/10/04 09:12:43;;;;;;;;;35.33;33.00;;;;;14.99;100.00;101431.25;4895171;29;44914;-85
2022/10/04 09:15:42;;;;;;;;;34.67;33.33;;;;;15.09;100.00;101429.50;4906953;29;46846;-85
2022/10/04 09:18:53;;;;;;;;;45.67;37.00;;;;;15.21;100.00;101437.66;4894822;29;45318;-85
2022/10/04 09:25:20;;;;;;;;;39.33;36.00;;;;;15.58;100.00;101430.69;4895299;29;44936;-85
2022/10/04 09:28:14;;;;;;;;;44.33;36.33;;;;;15.77;100.00;101439.75;4893006;29;45041;-85
2022/10/04 09:30:55;;;;;;;;;41.67;37.00;;;;;15.89;100.00;101432.63;4893573;29;45578;-85
2022/10/04 09:34:13;;;;;;;;;29.33;25.67;;;;;15.98;100.00;101417.44;4891904;29;45427;-84
2022/10/04 09:37:24;;;;;;;;;31.67;30.67;;;;;16.08;100.00;101406.72;4876322;29;45536;-84
2022/10/04 09:40:28;;;;;;;;;37.67;32.00;;;;;16.14;100.00;101412.13;4859270;29;45144;-84
2022/10/04 09:43:06;;;;;;;;;32.00;30.67;;;;;16.14;100.00;101407.66;4876584;29;45475;-85
2022/10/04 09:46:28;;;;;;;;;32.67;29.33;;;;;16.17;100.00;101407.63;4876694;29;44703;-85
2022/10/04 09:49:19;;;;;;;;;28.00;27.00;;;;;16.20;100.00;101413.03;4876240;29;44820;-85
2022/10/04 09:52:29;;;;;;;;;26.00;23.33;;;;;16.24;100.00;101408.56;4877135;29;45764;-84
2022/10/04 09:55:25;;;;;;;;;25.67;25.00;;;;;16.34;100.00;101417.50;4870598;29;45400;-85
2022/10/04 09:57:54;;;;;;;;;27.67;27.67;;;;;16.37;100.00;101407.66;4857971;29;45316;-83
2022/10/04 10:00:35;;;;;;;;;29.00;23.00;;;;;16.46;100.00;101406.78;4885229;29;44945;-84
2022/10/04 10:03:22;;;;;;;;;25.67;23.00;;;;;16.48;100.00;101406.78;4892837;29;45312;-85
2022/10/04 10:06:07;;;;;;;;;30.33;24.67;;;;;16.45;100.00;101401.41;4890275;29;45394;-84
2022/10/04 10:09:10;;;;;;;;;21.33;18.67;;;;;16.47;100.00;101392.47;4891866;29;44947;-87
2022/10/04 10:15:37;;;;;;;;;22.00;20.00;;;;;16.48;100.00;101386.22;4891890;29;45362;-86
2022/10/04 10:18:57;;;;;;;;;20.33;18.00;;;;;16.55;100.00;101379.03;4895661;29;45629;-84
2022/10/04 10:22:01;;;;;;;;;24.33;18.67;;;;;16.57;100.00;101375.44;4818825;29;45381;-85
2022/10/04 10:25:17;;;;;;;;;24.33;22.67;;;;;16.52;100.00;101353.09;4796048;29;45331;-83
2022/10/04 10:28:20;;;;;;;;;27.67;23.33;;;;;16.70;100.00;101364.69;4779693;29;45389;-84
2022/10/04 10:31:40;;;;;;;;;23.00;22.67;;;;;16.77;100.00;101366.50;4782778;29;45327;-84
2022/10/04 10:34:45;;;;;;;;;23.67;22.33;;;;;16.84;100.00;101368.28;4799519;29;44828;-83
2022/10/04 10:41:03;;;;;;;;;19.67;17.67;;;;;16.95;100.00;101373.66;4801185;29;45898;-84
2022/10/04 10:44:06;;;;;;;;;21.33;19.00;;;;;17.05;100.00;101362.00;4799893;29;45470;-85
2022/10/04 10:46:41;;;;;;;;;21.33;20.33;;;;;17.10;100.00;101359.28;4787018;29;44774;-84
2022/10/04 10:49:26;;;;;;;;;23.67;20.00;;;;;17.09;100.00;101349.44;4801416;29;45312;-85
2022/10/04 10:52:11;;;;;;;;;22.33;21.00;;;;;17.10;100.00;101348.53;4801137;29;47149;-86
2022/10/04 10:54:52;;;;;;;;;20.67;19.67;;;;;17.18;100.00;101358.34;4814218;29;45319;-85
2022/10/04 10:57:40;;;;;;;;;23.00;20.33;;;;;17.22;100.00;101358.34;4855951;29;44871;-85
2022/10/04 11:00:22;;;;;;;;;69.67;54.33;;;;;17.25;100.00;101353.88;4840740;29;45593;-83
2022/10/04 11:07:03;;;;;;;;;19.67;19.00;;;;;17.33;100.00;101368.16;4842973;29;45526;-83
2022/10/04 11:10:15;;;;;;;;;20.67;20.67;;;;;17.27;100.00;101368.19;4869119;29;44773;-84
2022/10/04 11:13:36;;;;;;;;;22.50;21.50;;;;;17.32;100.00;101370.84;4878241;29;45481;-85
2022/10/04 11:20:04;;;;;;;;;22.67;20.33;;;;;17.44;100.00;101364.53;4784966;29;45439;-83
2022/10/04 11:23:07;;;;;;;;;24.33;21.00;;;;;17.51;100.00;101368.97;4799326;29;44719;-83
2022/10/04 11:25:51;;;;;;;;;23.00;21.67;;;;;17.58;100.00;101374.31;4731107;30;44876;-85
2022/10/04 11:29:05;;;;;;;;;22.67;18.67;;;;;17.63;100.00;101376.09;4731626;30;45611;-84
2022/10/04 11:31:42;;;;;;;;;19.33;19.33;;;;;17.62;100.00;101369.84;4758939;29;44938;-85
2022/10/04 11:34:34;;;;;;;;;15.33;15.33;;;;;17.67;100.00;101378.75;4765994;29;44840;-82
2022/10/04 11:37:15;;;;;;;;;16.33;15.67;;;;;17.71;100.00;101380.53;4763790;29;45613;-84
2022/10/04 11:40:16;;;;;;;;;18.67;16.67;;;;;17.74;100.00;101374.25;4751303;29;47079;-85
2022/10/04 11:43:19;;;;;;;;;21.33;17.00;;;;;17.72;100.00;101365.31;4765913;29;45414;-84
2022/10/04 11:46:06;;;;;;;;;15.00;15.00;;;;;17.87;100.00;101375.09;4767307;29;45634;-84
2022/10/04 11:49:26;;;;;;;;;13.75;12.25;;;;;17.91;100.00;101371.50;4767921;29;44959;-84
2022/10/04 11:52:23;;;;;;;;;13.25;12.75;;;;;17.93;100.00;101359.81;4803682;29;46926;-84
2022/10/04 11:58:34;;;;;;;;;18.00;15.00;;;;;18.06;100.00;101367.84;4820078;29;44821;-84
2022/10/04 12:01:30;;;;;;;;;11.67;11.67;;;;;18.09;100.00;101363.28;4808723;29;45473;-85
2022/10/04 12:04:02;;;;;;;;;7.00;7.00;;;;;18.14;100.00;101368.66;4877542;29;46108;-84
2022/10/04 12:06:52;;;;;;;;;7.33;6.67;;;;;18.15;100.00;101371.31;4865517;29;45631;-83
2022/10/04 12:09:50;;;;;;;;;6.50;6.50;;;;;18.15;100.00;101365.94;4864505;29;45394;-86
2022/10/04 12:12:56;;;;;;;;;9.00;9.00;;;;;18.25;100.00;101372.16;4881540;29;45308;-84
2022/10/04 12:15:37;;;;;;;;;8.00;7.00;;;;;18.30;100.00;101372.09;4897615;29;46887;-84
2022/10/04 12:18:31;;;;;;;;;9.00;7.25;;;;;18.29;100.00;101373.03;4907378;29;45392;-85
2022/10/04 12:21:06;;;;;;;;;9.25;8.25;;;;;18.32;100.00;101373.00;4897974;29;44871;-84
2022/10/04 12:23:56;;;;;;;;;9.75;6.50;;;;;18.34;100.00;101372.09;4899415;29;45303;-84
2022/10/04 12:26:54;;;;;;;;;9.67;7.00;;;;;18.39;100.00;101362.16;4899066;29;46835;-86
2022/10/04 12:29:39;;;;;;;;;12.00;9.00;;;;;18.47;100.00;101355.84;4898227;29;45294;-86
2022/10/04 12:32:33;;;;;;;;;6.75;6.75;;;;;18.34;100.00;101320.00;4898468;29;44778;-86
2022/10/04 12:35:14;;;;;;;;;14.67;13.00;;;;;18.50;100.00;101345.94;4892276;29;45360;-86
2022/10/04 12:38:06;;;;;;;;;7.00;6.50;;;;;18.52;100.00;101341.44;4897411;29;46725;-86
2022/10/04 12:40:54;;;;;;;;;9.00;9.00;;;;;18.57;100.00;101336.88;4897846;29;45417;-87
2022/10/04 12:43:50;;;;;;;;;7.00;6.00;;;;;18.57;100.00;101342.25;4915730;29;45369;-84
2022/10/04 12:46:38;;;;;;;;;7.25;6.00;;;;;18.55;100.00;101332.41;4902285;29;45403;-87
2022/10/04 12:49:28;;;;;;;;;4.50;4.00;;;;;18.56;100.00;101328.78;4901572;29;45344;-84
2022/10/04 12:52:35;;;;;;;;;;;;;;;;;;;;;
2022/10/04 12:55:33;;;;;;;;;7.25;7.25;;;;;18.48;100.00;101293.88;4877394;29;68022;-85
2022/10/04 12:58:44;;;;;;;;;45.00;35.00;;;;;18.68;100.00;101306.22;4899621;29;45322;-86
2022/10/04 13:01:21;;;;;;;;;6.00;6.00;;;;;18.74;100.00;101308.88;4788990;29;45415;-86
2022/10/04 13:03:54;;;;;;;;;5.00;5.00;;;;;18.78;100.00;101313.31;4788488;29;44822;-87
2022/10/04 13:06:29;;;;;;;;;10.67;9.67;;;;;18.77;100.00;101304.34;4773366;29;44929;-85
2022/10/04 13:09:13;;;;;;;;;13.00;12.00;;;;;18.73;100.00;101289.13;4785662;29;45266;-85
2022/10/04 13:12:16;;;;;;;;;4.75;4.75;;;;;18.88;100.00;101298.84;4786917;29;45458;-85